Time;durP1;ratioP1;P1;durP2;ratioP2;P2;SDS_P1;SDS_P2;PMS_P1;PMS_P2;Temp;Humidity;BMP_temperature;BMP_pressure;BME280_temperature;BME280_humidity;BME280_pressure;Samples;Min_cycle;Max_cycle;Signal;HPM_P1;HPM_P2
2023/09/11 00:01:31;;;;;;;17.90;11.10;;;;;;;;;;104037;1291;545514;-75
2023/09/11 00:05:08;;;;;;;17.40;10.40;;;;;;;;;;103786;1292;545444;-74
2023/09/11 00:08:46;;;;;;;15.40;9.80;;;;;;;;;;103821;1291;544730;-74
2023/09/11 00:12:24;;;;;;;17.90;10.30;;;;;;;;;;103691;1290;545198;-74
2023/09/11 00:16:01;;;;;;;16.10;8.60;;;;;;;;;;103996;1289;544898;-74
2023/09/11 00:19:39;;;;;;;16.60;10.20;;;;;;;;;;103748;1292;545571;-75
2023/09/11 00:23:16;;;;;;;17.00;10.10;;;;;;;;;;103767;1291;546201;-75
2023/09/11 00:26:54;;;;;;;17.20;10.10;;;;;;;;;;103652;1292;545733;-75
2023/09/11 00:30:31;;;;;;;13.60;8.60;;;;;;;;;;103710;1290;544770;-75
2023/09/11 00:34:08;;;;;;;18.60;9.70;;;;;;;;;;103849;1292;546089;-75
2023/09/11 00:37:45;;;;;;;18.30;10.00;;;;;;;;;;103816;1291;544957;-75
2023/09/11 00:41:23;;;;;;;23.80;10.50;;;;;;;;;;103786;1291;545008;-75
2023/09/11 00:45:01;;;;;;;20.00;9.60;;;;;;;;;;103889;1292;545743;-75
2023/09/11 00:48:34;;;;;;;17.50;9.00;;;;;;;;;;103797;1292;544787;-75
2023/09/11 00:52:21;;;;;;;19.10;10.50;;;;;;;;;;103813;1292;545734;-75
2023/09/11 00:55:58;;;;;;;16.90;10.90;;;;;;;;;;103670;1291;545016;-75
2023/09/11 00:59:35;;;;;;;20.70;10.30;;;;;;;;;;103806;1290;545022;-75
2023/09/11 01:03:14;;;;;;;21.90;10.60;;;;;;;;;;103927;1288;544946;-74
2023/09/11 01:06:51;;;;;;;18.20;10.10;;;;;;;;;;104029;1288;545381;-75
2023/09/11 01:10:28;;;;;;;17.40;10.00;;;;;;;;;;103769;1290;544728;-75
2023/09/11 01:14:05;;;;;;;17.00;8.80;;;;;;;;;;104166;1285;545025;-75
2023/09/11 01:17:39;;;;;;;16.60;8.50;;;;;;;;;;103811;1292;545663;-75
2023/09/11 01:21:42;;;;;;;16.30;9.60;;;;;;;;;;103802;1289;544763;-75
2023/09/11 01:25:11;;;;;;;16.40;9.00;;;;;;;;;;103800;1289;545149;-75
2023/09/11 01:28:36;;;;;;;19.50;10.50;;;;;;;;;;103827;1292;545733;-75
2023/09/11 01:32:17;;;;;;;19.70;10.00;;;;;;;;;;104245;1288;545717;-75
2023/09/11 01:35:48;;;;;;;19.90;11.20;;;;;;;;;;103946;1288;545355;-74
2023/09/11 01:39:30;;;;;;;17.00;10.40;;;;;;;;;;103679;1291;545894;-75
2023/09/11 01:43:08;;;;;;;18.20;9.60;;;;;;;;;;103803;1292;545409;-75
2023/09/11 01:46:46;;;;;;;17.30;9.20;;;;;;;;;;103862;1292;545490;-75
2023/09/11 01:50:23;;;;;;;17.40;10.30;;;;;;;;;;103984;1288;544800;-75
2023/09/11 01:54:01;;;;;;;16.20;10.00;;;;;;;;;;103766;1292;545968;-75
2023/09/11 01:57:38;;;;;;;15.70;10.00;;;;;;;;;;103794;1288;544937;-75
2023/09/11 02:01:15;;;;;;;15.40;8.90;;;;;;;;;;103821;1289;544847;-75
2023/09/11 02:04:52;;;;;;;15.00;8.70;;;;;;;;;;103733;1292;544858;-75
2023/09/11 02:08:29;;;;;;;16.80;8.70;;;;;;;;;;103803;1289;544867;-75
2023/09/11 02:12:07;;;;;;;15.10;8.10;;;;;;;;;;103775;1289;545002;-74
2023/09/11 02:15:45;;;;;;;16.80;10.00;;;;;;;;;;103788;1291;545118;-74
2023/09/11 02:19:22;;;;;;;18.60;10.00;;;;;;;;;;104098;1288;545754;-75
2023/09/11 02:23:00;;;;;;;17.20;9.60;;;;;;;;;;103762;1290;544769;-75
2023/09/11 02:26:37;;;;;;;16.80;9.10;;;;;;;;;;103815;1291;544750;-75
2023/09/11 02:30:15;;;;;;;15.50;9.50;;;;;;;;;;103781;1299;545457;-75
2023/09/11 02:33:51;;;;;;;14.40;9.90;;;;;;;;;;104025;1292;545354;-75
2023/09/11 02:37:29;;;;;;;16.50;10.00;;;;;;;;;;103774;1291;544895;-75
2023/09/11 02:41:07;;;;;;;21.20;9.50;;;;;;;;;;103758;1302;545941;-75
2023/09/11 02:44:44;;;;;;;14.40;8.40;;;;;;;;;;103726;1291;544947;-75
2023/09/11 02:48:22;;;;;;;16.50;9.80;;;;;;;;;;104050;1292;544612;-75
2023/09/11 02:51:59;;;;;;;13.40;8.90;;;;;;;;;;103613;1295;545120;-74
2023/09/11 02:55:37;;;;;;;13.10;9.00;;;;;;;;;;103769;1292;545560;-75
2023/09/11 02:59:14;;;;;;;11.90;8.30;;;;;;;;;;103812;1289;545667;-74
2023/09/11 03:02:52;;;;;;;13.10;7.80;;;;;;;;;;103770;1292;544936;-74
2023/09/11 03:06:30;;;;;;;10.10;7.10;;;;;;;;;;104320;1286;545798;-74
2023/09/11 03:10:07;;;;;;;13.60;7.90;;;;;;;;;;103849;1296;545315;-74
2023/09/11 03:13:44;;;;;;;10.40;7.30;;;;;;;;;;103722;1300;545047;-75
2023/09/11 03:17:22;;;;;;;10.80;7.10;;;;;;;;;;103787;1290;545056;-74
2023/09/11 03:20:59;;;;;;;10.90;6.40;;;;;;;;;;103683;1292;544787;-75
2023/09/11 03:24:36;;;;;;;11.80;8.00;;;;;;;;;;103838;1292;545713;-75
2023/09/11 03:28:14;;;;;;;10.80;8.00;;;;;;;;;;103702;1291;544997;-75
2023/09/11 03:31:51;;;;;;;11.90;7.50;;;;;;;;;;103679;1291;545860;-75
2023/09/11 03:35:29;;;;;;;11.00;7.10;;;;;;;;;;103710;1290;545663;-75
2023/09/11 03:39:07;;;;;;;10.30;7.30;;;;;;;;;;103731;1292;544897;-74
2023/09/11 03:42:43;;;;;;;11.00;7.80;;;;;;;;;;103807;1289;545519;-75
2023/09/11 03:46:21;;;;;;;12.00;8.00;;;;;;;;;;103754;1289;544723;-74
2023/09/11 03:50:01;;;;;;;10.60;7.80;;;;;;;;;;103905;1291;544836;-75
2023/09/11 03:53:42;;;;;;;11.50;7.20;;;;;;;;;;103698;1294;545054;-75
2023/09/11 03:57:14;;;;;;;9.80;6.90;;;;;;;;;;104042;1289;545671;-74
2023/09/11 04:00:51;;;;;;;10.50;7.20;;;;;;;;;;103774;1292;545316;-75
2023/09/11 04:04:29;;;;;;;11.00;7.40;;;;;;;;;;103867;1288;545044;-75
2023/09/11 04:08:06;;;;;;;12.70;7.30;;;;;;;;;;104360;1286;544910;-74
2023/09/11 04:11:44;;;;;;;12.00;7.30;;;;;;;;;;103796;1290;545143;-74
2023/09/11 04:15:17;;;;;;;22.80;8.50;;;;;;;;;;103860;1292;545489;-75
2023/09/11 04:18:56;;;;;;;16.90;8.60;;;;;;;;;;103841;1288;544979;-75
2023/09/11 04:22:39;;;;;;;33.00;9.90;;;;;;;;;;103807;1289;544867;-76
2023/09/11 04:26:17;;;;;;;24.70;8.50;;;;;;;;;;103645;1292;544970;-75
2023/09/11 04:29:56;;;;;;;17.90;7.90;;;;;;;;;;103770;1292;544770;-74
2023/09/11 04:33:32;;;;;;;21.60;8.30;;;;;;;;;;103976;1292;544935;-74
2023/09/11 04:37:09;;;;;;;18.20;8.40;;;;;;;;;;103812;1290;544846;-74
2023/09/11 04:40:46;;;;;;;15.00;8.10;;;;;;;;;;103790;1292;544989;-74
2023/09/11 04:44:24;;;;;;;18.80;8.30;;;;;;;;;;103749;1291;544772;-75
2023/09/11 04:48:01;;;;;;;18.40;7.70;;;;;;;;;;103805;1289;544829;-75
2023/09/11 04:51:39;;;;;;;34.50;10.20;;;;;;;;;;103822;1289;544981;-75
2023/09/11 04:55:16;;;;;;;32.10;10.40;;;;;;;;;;103952;1288;544893;-75
2023/09/11 04:58:55;;;;;;;40.30;11.00;;;;;;;;;;103725;1289;545442;-75
2023/09/11 05:02:51;;;;;;;41.40;11.50;;;;;;;;;;103829;1295;545608;-74
2023/09/11 05:06:09;;;;;;;45.70;12.10;;;;;;;;;;104099;1286;545651;-75
2023/09/11 05:09:46;;;;;;;43.20;11.60;;;;;;;;;;103858;1289;545579;-75
2023/09/11 05:13:23;;;;;;;47.30;12.50;;;;;;;;;;103781;1292;544787;-74
2023/09/11 05:27:24;;;;;;;36.90;13.70;;;;;;;;;;104764;1282;550880;-75
2023/09/11 05:30:16;;;;;;;40.00;14.40;;;;;;;;;;103855;1290;545131;-75
2023/09/11 05:33:54;;;;;;;31.80;13.60;;;;;;;;;;103653;1291;544880;-75
2023/09/11 05:37:31;;;;;;;21.00;8.80;;;;;;;;;;103735;1289;544910;-75
2023/09/11 05:41:09;;;;;;;18.20;9.20;;;;;;;;;;103840;1291;545344;-75
2023/09/11 05:44:48;;;;;;;22.90;9.20;;;;;;;;;;103829;1295;544905;-75
2023/09/11 05:48:23;;;;;;;17.90;8.20;;;;;;;;;;103771;1290;545160;-74
2023/09/11 05:52:02;;;;;;;19.90;8.30;;;;;;;;;;103743;1292;544764;-75
2023/09/11 05:55:38;;;;;;;21.50;8.40;;;;;;;;;;103848;1295;544834;-75
2023/09/11 05:59:20;;;;;;;18.60;8.10;;;;;;;;;;103781;1291;545704;-75
2023/09/11 06:02:54;;;;;;;20.60;7.80;;;;;;;;;;103752;1291;545078;-75
2023/09/11 06:06:31;;;;;;;27.30;9.10;;;;;;;;;;103854;1292;545167;-75
2023/09/11 06:10:10;;;;;;;27.50;9.60;;;;;;;;;;103750;1289;544844;-75
2023/09/11 06:13:42;;;;;;;40.90;10.30;;;;;;;;;;103856;1288;545558;-75
2023/09/11 06:17:25;;;;;;;27.40;9.10;;;;;;;;;;103814;1289;544725;-75
2023/09/11 06:21:02;;;;;;;24.40;9.40;;;;;;;;;;103935;1289;544931;-75
2023/09/11 06:24:40;;;;;;;44.60;10.20;;;;;;;;;;103966;1290;545020;-75
2023/09/11 06:28:17;;;;;;;34.20;8.90;;;;;;;;;;104417;1283;544953;-75
2023/09/11 06:31:55;;;;;;;41.00;9.50;;;;;;;;;;103741;1291;545941;-75
2023/09/11 06:35:32;;;;;;;25.60;8.30;;;;;;;;;;104092;1288;544969;-75
2023/09/11 06:39:09;;;;;;;20.10;8.00;;;;;;;;;;103785;1289;545432;-75
2023/09/11 06:42:47;;;;;;;23.50;8.60;;;;;;;;;;103945;1288;545455;-75
2023/09/11 06:46:24;;;;;;;31.10;9.20;;;;;;;;;;103681;1291;545543;-75
2023/09/11 06:50:02;;;;;;;27.80;8.90;;;;;;;;;;104069;1292;545610;-75
2023/09/11 06:53:39;;;;;;;26.30;8.30;;;;;;;;;;103747;1293;545134;-73
2023/09/11 06:57:16;;;;;;;29.30;10.30;;;;;;;;;;103943;1294;545182;-75
2023/09/11 07:00:54;;;;;;;26.30;9.10;;;;;;;;;;103882;1289;545778;-75
2023/09/11 07:04:32;;;;;;;32.10;10.30;;;;;;;;;;103713;1288;545163;-75
2023/09/11 07:08:09;;;;;;;28.10;12.50;;;;;;;;;;103598;1293;544750;-75
2023/09/11 07:11:46;;;;;;;116.10;60.20;;;;;;;;;;103735;1290;545142;-75
2023/09/11 07:15:24;;;;;;;84.40;45.40;;;;;;;;;;103811;1292;544966;-75
2023/09/11 07:19:01;;;;;;;26.10;9.70;;;;;;;;;;103768;1295;544920;-75
2023/09/11 07:22:39;;;;;;;21.80;8.70;;;;;;;;;;103764;1289;545449;-75
2023/09/11 07:26:17;;;;;;;20.00;8.30;;;;;;;;;;104008;1288;544949;-75
2023/09/11 07:29:54;;;;;;;30.30;8.60;;;;;;;;;;103757;1289;545509;-73
2023/09/11 07:33:31;;;;;;;27.60;8.20;;;;;;;;;;103830;1289;545693;-73
2023/09/11 07:37:08;;;;;;;48.90;18.20;;;;;;;;;;104122;1285;545628;-73
2023/09/11 07:40:46;;;;;;;28.90;11.50;;;;;;;;;;103836;1289;544886;-73
2023/09/11 07:44:23;;;;;;;36.30;13.00;;;;;;;;;;103996;1289;544805;-73
2023/09/11 07:48:00;;;;;;;36.30;11.40;;;;;;;;;;103835;1289;545693;-75
2023/09/11 07:51:39;;;;;;;48.40;16.90;;;;;;;;;;103769;1291;545051;-74
2023/09/11 07:55:16;;;;;;;28.30;12.00;;;;;;;;;;103802;1292;545004;-73
2023/09/11 07:58:54;;;;;;;28.30;11.80;;;;;;;;;;103748;1291;545511;-73
2023/09/11 08:02:31;;;;;;;34.10;9.30;;;;;;;;;;103892;1289;544807;-75
2023/09/11 08:06:09;;;;;;;33.70;10.60;;;;;;;;;;103979;1289;545062;-73
2023/09/11 08:09:46;;;;;;;44.30;24.10;;;;;;;;;;103738;1292;544871;-73
2023/09/11 08:13:24;;;;;;;20.70;9.20;;;;;;;;;;103832;1291;544968;-75
2023/09/11 08:17:01;;;;;;;21.50;9.20;;;;;;;;;;103819;1289;545469;-73
2023/09/11 08:20:44;;;;;;;17.30;7.70;;;;;;;;;;103899;1292;545034;-73
2023/09/11 08:24:16;;;;;;;13.80;7.50;;;;;;;;;;103819;1289;544731;-73
2023/09/11 08:27:54;;;;;;;10.20;6.30;;;;;;;;;;103763;1289;545590;-75
2023/09/11 08:31:30;;;;;;;13.70;6.90;;;;;;;;;;103746;1291;545605;-73
2023/09/11 08:35:08;;;;;;;12.10;6.30;;;;;;;;;;103620;1291;544949;-73
2023/09/11 08:38:47;;;;;;;9.80;6.30;;;;;;;;;;103858;1289;544932;-73
2023/09/11 08:42:24;;;;;;;10.40;6.00;;;;;;;;;;103698;1291;545545;-73
2023/09/11 08:46:03;;;;;;;11.30;6.20;;;;;;;;;;103986;1292;545869;-73
2023/09/11 08:49:42;;;;;;;10.10;6.40;;;;;;;;;;103885;1288;545344;-73
2023/09/11 08:53:14;;;;;;;9.30;5.80;;;;;;;;;;103835;1288;544787;-73
2023/09/11 08:56:57;;;;;;;9.40;5.60;;;;;;;;;;103746;1301;545174;-73
2023/09/11 09:00:34;;;;;;;10.10;5.80;;;;;;;;;;103823;1290;544792;-76
2023/09/11 09:04:12;;;;;;;12.30;6.00;;;;;;;;;;103764;1288;545255;-73
2023/09/11 09:07:49;;;;;;;11.40;6.20;;;;;;;;;;103808;1292;545987;-75
2023/09/11 09:11:33;;;;;;;11.70;7.00;;;;;;;;;;103609;1292;547995;-73
2023/09/11 09:15:04;;;;;;;10.60;6.30;;;;;;;;;;103697;1291;545454;-76
2023/09/11 09:18:49;;;;;;;17.30;7.20;;;;;;;;;;103912;1287;545716;-75
2023/09/11 09:22:18;;;;;;;10.30;5.30;;;;;;;;;;103786;1289;545016;-75
2023/09/11 09:26:07;;;;;;;17.60;6.90;;;;;;;;;;103868;1289;544998;-75
2023/09/11 09:29:34;;;;;;;14.60;5.80;;;;;;;;;;103783;1292;545050;-73
2023/09/11 09:33:13;;;;;;;11.00;6.00;;;;;;;;;;103941;1288;544899;-73
2023/09/11 09:36:49;;;;;;;17.80;6.50;;;;;;;;;;103824;1292;544917;-76
2023/09/11 09:40:28;;;;;;;9.90;6.00;;;;;;;;;;103891;1288;544907;-76
2023/09/11 09:44:03;;;;;;;10.40;6.10;;;;;;;;;;103815;1292;544979;-74
2023/09/11 09:47:41;;;;;;;9.40;6.20;;;;;;;;;;103802;1292;545355;-76
2023/09/11 09:51:20;;;;;;;9.10;6.20;;;;;;;;;;103811;1296;544982;-75
2023/09/11 09:54:59;;;;;;;10.40;6.90;;;;;;;;;;103982;1294;545394;-73
2023/09/11 09:58:34;;;;;;;9.80;6.40;;;;;;;;;;103842;1289;544931;-74
2023/09/11 10:02:13;;;;;;;9.50;5.90;;;;;;;;;;103594;1304;545046;-75
2023/09/11 10:05:51;;;;;;;8.70;6.50;;;;;;;;;;104599;1282;545163;-73
2023/09/11 10:09:26;;;;;;;10.50;6.60;;;;;;;;;;103859;1291;545894;-73
2023/09/11 10:13:03;;;;;;;9.60;5.70;;;;;;;;;;104286;1288;545105;-73
2023/09/11 10:16:42;;;;;;;10.80;7.00;;;;;;;;;;103724;1290;545667;-72
2023/09/11 10:20:18;;;;;;;9.40;5.90;;;;;;;;;;104105;1288;545843;-72
2023/09/11 10:23:55;;;;;;;10.10;5.80;;;;;;;;;;103762;1292;544924;-75
2023/09/11 10:27:33;;;;;;;10.60;6.70;;;;;;;;;;103988;1289;544903;-72
2023/09/11 10:31:12;;;;;;;10.20;5.80;;;;;;;;;;103641;1291;545789;-72
2023/09/11 10:34:50;;;;;;;11.70;6.30;;;;;;;;;;104104;1292;545994;-72
2023/09/11 10:38:30;;;;;;;10.30;6.40;;;;;;;;;;103775;1291;545263;-73
2023/09/11 10:42:03;;;;;;;13.60;6.20;;;;;;;;;;103784;1290;545920;-73
2023/09/11 10:45:40;;;;;;;10.30;6.30;;;;;;;;;;103757;1292;545360;-72
2023/09/11 10:49:18;;;;;;;9.60;6.40;;;;;;;;;;104104;1286;544788;-73
2023/09/11 10:52:56;;;;;;;11.60;6.90;;;;;;;;;;103626;1291;545857;-73
2023/09/11 10:56:36;;;;;;;12.10;6.40;;;;;;;;;;103798;1292;544920;-73
2023/09/11 11:00:10;;;;;;;9.80;6.00;;;;;;;;;;103834;1289;545942;-73
2023/09/11 11:03:48;;;;;;;9.80;6.10;;;;;;;;;;103885;1288;544814;-72
2023/09/11 11:07:27;;;;;;;10.10;6.30;;;;;;;;;;104263;1286;545339;-73
2023/09/11 11:11:03;;;;;;;10.10;6.40;;;;;;;;;;103790;1291;545243;-74
2023/09/11 11:14:40;;;;;;;10.50;6.30;;;;;;;;;;104039;1291;545147;-75
2023/09/11 11:18:27;;;;;;;11.40;6.40;;;;;;;;;;103818;1292;547926;-74
2023/09/11 11:21:55;;;;;;;9.60;6.00;;;;;;;;;;103728;1291;544950;-73
2023/09/11 11:25:32;;;;;;;10.50;6.70;;;;;;;;;;103747;1289;545951;-72
2023/09/11 11:29:10;;;;;;;11.50;6.10;;;;;;;;;;103687;1292;545245;-73
2023/09/11 11:32:48;;;;;;;12.20;7.10;;;;;;;;;;103670;1292;544798;-73
2023/09/11 11:36:26;;;;;;;10.80;6.20;;;;;;;;;;103971;1286;545067;-72
2023/09/11 11:40:08;;;;;;;9.20;6.20;;;;;;;;;;103752;1292;544784;-73
2023/09/11 11:54:04;;;;;;;12.20;6.80;;;;;;;;;;104664;1285;550229;-73
2023/09/11 11:56:59;;;;;;;10.50;6.40;;;;;;;;;;103760;1291;545685;-73
2023/09/11 12:00:32;;;;;;;9.90;6.20;;;;;;;;;;103721;1293;544859;-75
2023/09/11 12:04:10;;;;;;;10.70;7.10;;;;;;;;;;103755;1289;545627;-73
2023/09/11 12:07:48;;;;;;;11.60;6.80;;;;;;;;;;103630;1292;545330;-74
2023/09/11 12:11:26;;;;;;;9.60;6.60;;;;;;;;;;103536;1293;544999;-73
2023/09/11 12:15:03;;;;;;;11.00;6.00;;;;;;;;;;103798;1289;544985;-73
2023/09/11 12:18:40;;;;;;;8.70;6.20;;;;;;;;;;104028;1288;545510;-73
2023/09/11 12:22:18;;;;;;;11.80;6.30;;;;;;;;;;103750;1291;545974;-73
2023/09/11 12:25:54;;;;;;;20.00;7.20;;;;;;;;;;103687;1292;545592;-73
2023/09/11 12:29:32;;;;;;;14.40;6.40;;;;;;;;;;103837;1295;544947;-76
2023/09/11 12:33:09;;;;;;;9.30;5.30;;;;;;;;;;103965;1289;544611;-75
2023/09/11 12:36:52;;;;;;;11.10;5.90;;;;;;;;;;103694;1292;544978;-73
2023/09/11 12:40:29;;;;;;;10.90;5.90;;;;;;;;;;103737;1295;544691;-74
2023/09/11 12:44:07;;;;;;;9.20;5.60;;;;;;;;;;103842;1290;544924;-73
2023/09/11 12:48:04;;;;;;;10.50;6.10;;;;;;;;;;103694;1301;548115;-73
2023/09/11 12:51:21;;;;;;;11.80;6.50;;;;;;;;;;103712;1289;544977;-73
2023/09/11 12:54:58;;;;;;;10.80;6.60;;;;;;;;;;103710;1291;544767;-73
2023/09/11 12:58:37;;;;;;;9.90;6.10;;;;;;;;;;103817;1291;545077;-74
2023/09/11 13:02:13;;;;;;;10.30;6.70;;;;;;;;;;103713;1290;544936;-74
2023/09/11 13:05:51;;;;;;;11.10;5.90;;;;;;;;;;103697;1289;545285;-73
2023/09/11 13:09:28;;;;;;;9.60;6.70;;;;;;;;;;103834;1295;545279;-73
2023/09/11 13:13:06;;;;;;;9.70;6.40;;;;;;;;;;103699;1292;544725;-73
2023/09/11 13:16:44;;;;;;;9.50;5.70;;;;;;;;;;103785;1292;544964;-73
2023/09/11 13:20:21;;;;;;;9.40;5.90;;;;;;;;;;103745;1291;544991;-73
2023/09/11 13:23:58;;;;;;;10.30;6.30;;;;;;;;;;103859;1289;544921;-73
2023/09/11 13:27:36;;;;;;;10.00;6.10;;;;;;;;;;103877;1289;545696;-73
2023/09/11 13:31:13;;;;;;;10.50;6.60;;;;;;;;;;103774;1292;545054;-73
2023/09/11 13:34:50;;;;;;;11.60;6.90;;;;;;;;;;103749;1292;545004;-73
2023/09/11 13:38:28;;;;;;;8.60;5.90;;;;;;;;;;103750;1290;544859;-73
2023/09/11 13:42:06;;;;;;;11.70;6.50;;;;;;;;;;103727;1290;545517;-73
2023/09/11 13:45:43;;;;;;;9.50;5.80;;;;;;;;;;103688;1289;546272;-73
2023/09/11 13:49:21;;;;;;;9.40;6.50;;;;;;;;;;103855;1292;544891;-73
2023/09/11 13:52:57;;;;;;;9.80;5.90;;;;;;;;;;103757;1291;545499;-73
2023/09/11 13:56:36;;;;;;;10.70;6.60;;;;;;;;;;103747;1292;545614;-73
2023/09/11 14:00:13;;;;;;;11.50;5.90;;;;;;;;;;103674;1292;544940;-73
2023/09/11 14:03:51;;;;;;;10.00;6.70;;;;;;;;;;103617;1291;544847;-73
2023/09/11 14:07:27;;;;;;;13.40;6.40;;;;;;;;;;103775;1289;545021;-73
2023/09/11 14:11:05;;;;;;;8.70;5.60;;;;;;;;;;103745;1291;544727;-73
2023/09/11 14:14:43;;;;;;;10.70;6.60;;;;;;;;;;103716;1295;545344;-73
2023/09/11 14:18:21;;;;;;;9.60;5.70;;;;;;;;;;103733;1289;545367;-73
2023/09/11 14:21:57;;;;;;;9.50;5.90;;;;;;;;;;104518;1282;545297;-74
2023/09/11 14:25:35;;;;;;;11.40;7.00;;;;;;;;;;103866;1288;545001;-73
2023/09/11 14:29:12;;;;;;;10.60;6.50;;;;;;;;;;103775;1291;545363;-73
2023/09/11 14:32:50;;;;;;;9.20;6.20;;;;;;;;;;103601;1294;544988;-74
2023/09/11 14:36:28;;;;;;;10.20;6.10;;;;;;;;;;103830;1295;544708;-73
2023/09/11 14:40:05;;;;;;;10.40;5.90;;;;;;;;;;103774;1289;544973;-73
2023/09/11 14:43:42;;;;;;;11.60;6.50;;;;;;;;;;104006;1289;545970;-73
2023/09/11 14:47:20;;;;;;;9.90;6.70;;;;;;;;;;103461;1298;545366;-73
2023/09/11 14:50:53;;;;;;;10.20;6.80;;;;;;;;;;103911;1288;544903;-74
2023/09/11 14:54:35;;;;;;;10.10;6.70;;;;;;;;;;103745;1291;545164;-75
2023/09/11 14:58:13;;;;;;;11.40;6.30;;;;;;;;;;104125;1288;544650;-73
2023/09/11 15:01:51;;;;;;;9.90;6.70;;;;;;;;;;103678;1290;544891;-75
2023/09/11 15:05:29;;;;;;;9.10;6.80;;;;;;;;;;103725;1292;545032;-75
2023/09/11 15:09:06;;;;;;;9.20;6.60;;;;;;;;;;104003;1291;545153;-75
2023/09/11 15:12:44;;;;;;;9.90;6.50;;;;;;;;;;104075;1286;545070;-75
2023/09/11 15:16:21;;;;;;;28.90;16.30;;;;;;;;;;104007;1292;544779;-75
2023/09/11 15:19:58;;;;;;;28.70;16.40;;;;;;;;;;103682;1291;545570;-75
2023/09/11 15:33:58;;;;;;;11.20;7.00;;;;;;;;;;104728;1283;550591;-74
2023/09/11 15:36:50;;;;;;;10.40;6.30;;;;;;;;;;103738;1290;544813;-73
2023/09/11 15:40:29;;;;;;;10.50;6.40;;;;;;;;;;103737;1302;544772;-73
2023/09/11 15:44:05;;;;;;;11.20;7.80;;;;;;;;;;103792;1289;545770;-73
2023/09/11 15:47:43;;;;;;;9.90;6.60;;;;;;;;;;103659;1291;545398;-74
2023/09/11 15:51:20;;;;;;;10.70;6.30;;;;;;;;;;103974;1299;544593;-76
2023/09/11 16:05:22;;;;;;;11.90;6.20;;;;;;;;;;104701;1282;549966;-74
2023/09/11 16:18:42;;;;;;;31.50;18.50;;;;;;;;;;104462;1285;554162;-74
2023/09/11 16:21:34;;;;;;;60.40;35.40;;;;;;;;;;103891;1289;545679;-75
2023/09/11 16:25:13;;;;;;;55.60;35.30;;;;;;;;;;103750;1292;544747;-73
2023/09/11 16:28:49;;;;;;;52.70;36.10;;;;;;;;;;103733;1289;544875;-73
2023/09/11 16:32:26;;;;;;;36.90;25.90;;;;;;;;;;103724;1292;544807;-73
2023/09/11 16:36:04;;;;;;;45.30;29.40;;;;;;;;;;104041;1295;545301;-74
2023/09/11 16:50:25;;;;;;;11.50;7.20;;;;;;;;;;106510;1267;550224;-74
2023/09/11 16:53:18;;;;;;;16.00;10.50;;;;;;;;;;103664;1295;544755;-74
2023/09/11 16:56:55;;;;;;;19.50;12.30;;;;;;;;;;103789;1289;545646;-73
2023/09/11 17:00:33;;;;;;;19.60;12.00;;;;;;;;;;103737;1291;544783;-74
2023/09/11 17:04:10;;;;;;;15.70;11.10;;;;;;;;;;103724;1292;545107;-73
2023/09/11 17:07:48;;;;;;;18.70;11.20;;;;;;;;;;103659;1295;544941;-74
2023/09/11 17:21:48;;;;;;;23.90;15.20;;;;;;;;;;104768;1283;549886;-74
2023/09/11 17:24:41;;;;;;;21.60;13.90;;;;;;;;;;103747;1292;545011;-76
2023/09/11 17:29:28;;;;;;;27.40;15.80;;;;;;;;;;104739;1282;545349;-76
2023/09/11 17:36:43;;;;;;;20.60;12.20;;;;;;;;;;103662;1304;545455;-75
2023/09/11 17:39:51;;;;;;;21.70;11.50;;;;;;;;;;103738;1292;545191;-75
2023/09/11 17:43:28;;;;;;;17.70;10.90;;;;;;;;;;103703;1291;545504;-75
2023/09/11 17:47:05;;;;;;;18.60;11.30;;;;;;;;;;103779;1292;544803;-75
2023/09/11 17:50:49;;;;;;;17.20;10.70;;;;;;;;;;103702;1292;544989;-75
2023/09/11 17:54:26;;;;;;;21.10;10.80;;;;;;;;;;103615;1291;548272;-73
2023/09/11 17:57:54;;;;;;;16.50;9.60;;;;;;;;;;104047;1289;545428;-75
2023/09/11 18:01:37;;;;;;;17.40;11.50;;;;;;;;;;103749;1292;544722;-74
2023/09/11 18:05:14;;;;;;;26.30;15.10;;;;;;;;;;104121;1285;545419;-75
2023/09/11 18:08:53;;;;;;;22.60;14.50;;;;;;;;;;104186;1289;545080;-75
2023/09/11 18:12:29;;;;;;;31.90;21.30;;;;;;;;;;103979;1288;544931;-75
2023/09/11 18:16:07;;;;;;;30.90;20.10;;;;;;;;;;103750;1292;545414;-74
2023/09/11 18:19:44;;;;;;;35.80;20.20;;;;;;;;;;103724;1289;544963;-75
2023/09/11 18:23:21;;;;;;;30.30;19.20;;;;;;;;;;103718;1291;544867;-75
2023/09/11 18:26:58;;;;;;;32.40;21.00;;;;;;;;;;103761;1292;545335;-75
2023/09/11 18:30:36;;;;;;;29.90;20.10;;;;;;;;;;103692;1289;545049;-75
2023/09/11 18:34:13;;;;;;;29.30;19.00;;;;;;;;;;103949;1289;545918;-75
2023/09/11 18:37:52;;;;;;;27.30;17.40;;;;;;;;;;103651;1291;545956;-75
2023/09/11 18:41:30;;;;;;;27.90;17.30;;;;;;;;;;103818;1289;544847;-74
2023/09/11 18:45:12;;;;;;;25.40;15.50;;;;;;;;;;103307;1294;547997;-75
2023/09/11 18:48:43;;;;;;;24.30;15.80;;;;;;;;;;104015;1290;545909;-75
2023/09/11 18:52:21;;;;;;;28.20;17.50;;;;;;;;;;103721;1290;545105;-76
2023/09/11 18:55:59;;;;;;;24.40;17.00;;;;;;;;;;104281;1285;544983;-75
2023/09/11 18:59:37;;;;;;;27.10;16.60;;;;;;;;;;103743;1291;545023;-75
2023/09/11 19:03:13;;;;;;;25.70;16.90;;;;;;;;;;103730;1290;544764;-75
2023/09/11 19:06:51;;;;;;;27.00;17.60;;;;;;;;;;103786;1292;546199;-75
2023/09/11 19:10:30;;;;;;;25.40;17.10;;;;;;;;;;103736;1289;545006;-75
2023/09/11 19:14:06;;;;;;;21.50;15.20;;;;;;;;;;103760;1289;545043;-75
2023/09/11 19:17:44;;;;;;;22.60;15.50;;;;;;;;;;103771;1291;544971;-75
2023/09/11 19:21:21;;;;;;;21.30;14.30;;;;;;;;;;103981;1294;544810;-75
2023/09/11 19:24:58;;;;;;;18.60;13.10;;;;;;;;;;104275;1284;544891;-75
2023/09/11 19:28:36;;;;;;;19.60;13.10;;;;;;;;;;103864;1289;545572;-76
2023/09/11 19:32:13;;;;;;;16.90;12.10;;;;;;;;;;103837;1291;545149;-75
2023/09/11 19:35:51;;;;;;;17.80;11.80;;;;;;;;;;103674;1291;544900;-75
2023/09/11 19:39:29;;;;;;;15.10;11.30;;;;;;;;;;103797;1289;545080;-75
2023/09/11 19:53:29;;;;;;;14.60;11.40;;;;;;;;;;104556;1285;550454;-75
2023/09/11 19:56:21;;;;;;;14.10;9.90;;;;;;;;;;103734;1292;545452;-76
2023/09/11 19:59:58;;;;;;;19.10;10.80;;;;;;;;;;104000;1298;544925;-75
2023/09/11 20:03:35;;;;;;;18.90;12.00;;;;;;;;;;103766;1289;544903;-75
2023/09/11 20:07:29;;;;;;;13.80;10.20;;;;;;;;;;104207;1289;548019;-75
2023/09/11 20:10:50;;;;;;;19.40;10.60;;;;;;;;;;103878;1289;544713;-75
2023/09/11 20:14:34;;;;;;;16.60;10.60;;;;;;;;;;103456;1293;547969;-75
2023/09/11 20:18:05;;;;;;;16.60;10.80;;;;;;;;;;103747;1289;545098;-75
2023/09/11 20:21:43;;;;;;;18.40;12.70;;;;;;;;;;103745;1289;546067;-75
2023/09/11 20:25:20;;;;;;;19.50;13.20;;;;;;;;;;104024;1292;545045;-75
2023/09/11 20:28:58;;;;;;;20.70;14.60;;;;;;;;;;103707;1289;545979;-75
2023/09/11 20:32:35;;;;;;;20.00;13.30;;;;;;;;;;103779;1291;545236;-75
2023/09/11 20:36:19;;;;;;;20.50;12.70;;;;;;;;;;103601;1291;547929;-75
2023/09/11 20:39:57;;;;;;;18.60;12.60;;;;;;;;;;103657;1292;547774;-75
2023/09/11 20:43:31;;;;;;;21.20;13.50;;;;;;;;;;103623;1291;545457;-76
2023/09/11 20:47:05;;;;;;;17.50;12.50;;;;;;;;;;103712;1291;544772;-75
2023/09/11 20:50:43;;;;;;;24.10;13.50;;;;;;;;;;103584;1303;546697;-75
2023/09/11 20:54:20;;;;;;;17.70;11.70;;;;;;;;;;103719;1291;544848;-75
2023/09/11 20:57:57;;;;;;;16.70;11.30;;;;;;;;;;103737;1292;544947;-75
2023/09/11 21:01:35;;;;;;;18.20;11.40;;;;;;;;;;103714;1293;545693;-76
2023/09/11 21:05:13;;;;;;;19.30;11.80;;;;;;;;;;103784;1289;544737;-75
2023/09/11 21:08:50;;;;;;;17.20;12.70;;;;;;;;;;103749;1291;544861;-76
2023/09/11 21:12:27;;;;;;;16.50;12.50;;;;;;;;;;103693;1291;545065;-76
2023/09/11 21:16:05;;;;;;;14.90;11.30;;;;;;;;;;103901;1289;544880;-75
2023/09/11 21:19:42;;;;;;;16.10;12.50;;;;;;;;;;103779;1291;545165;-75
2023/09/11 21:23:19;;;;;;;17.90;13.20;;;;;;;;;;103788;1292;546047;-76
2023/09/11 21:26:57;;;;;;;18.10;13.10;;;;;;;;;;104046;1289;544807;-76
2023/09/11 21:30:34;;;;;;;16.20;12.70;;;;;;;;;;103746;1290;545394;-75
2023/09/11 21:34:12;;;;;;;19.70;12.10;;;;;;;;;;103718;1292;545941;-75
2023/09/11 21:37:49;;;;;;;17.50;11.50;;;;;;;;;;103714;1290;544807;-76
2023/09/11 21:41:27;;;;;;;17.60;11.90;;;;;;;;;;103844;1289;545638;-75
2023/09/11 21:45:10;;;;;;;16.20;12.70;;;;;;;;;;103565;1291;548072;-75
2023/09/11 21:48:48;;;;;;;16.50;12.30;;;;;;;;;;103574;1292;547857;-76
2023/09/11 21:52:20;;;;;;;17.50;11.90;;;;;;;;;;104035;1289;545652;-76
2023/09/11 21:55:57;;;;;;;15.80;11.30;;;;;;;;;;103777;1289;545170;-76
2023/09/11 21:59:36;;;;;;;17.50;12.00;;;;;;;;;;103790;1289;545609;-76
2023/09/11 22:03:12;;;;;;;17.20;12.30;;;;;;;;;;103729;1291;545380;-76